createdAt,value
2018-05-18T00:01:28.103Z,99.90
2018-05-18T00:04:00.484Z,99.90
2018-05-18T00:06:32.703Z,99.90
2018-05-18T00:09:04.258Z,99.90
2018-05-18T00:11:38.707Z,99.90
2018-05-18T00:14:10.162Z,99.90
2018-05-18T00:16:42.247Z,99.90
2018-05-18T00:22:02.949Z,99.90
2018-05-18T00:24:36.596Z,99.90
2018-05-18T00:27:11.801Z,99.90
2018-05-18T00:29:42.901Z,99.90
2018-05-18T00:32:14.744Z,99.90
2018-05-18T00:34:47.972Z,99.90
2018-05-18T00:37:18.203Z,99.90
2018-05-18T00:39:51.371Z,99.90
2018-05-18T00:42:20.884Z,99.90
2018-05-18T00:44:51.473Z,99.90
2018-05-18T00:47:22.096Z,99.90
2018-05-18T00:49:52.993Z,99.90
2018-05-18T00:52:22.706Z,99.90
2018-05-18T00:54:52.880Z,99.90
2018-05-18T00:57:22.513Z,99.90
2018-05-18T00:59:52.042Z,99.90
2018-05-18T01:02:24.517Z,99.90
2018-05-18T01:04:56.914Z,99.90
2018-05-18T01:07:26.875Z,99.90
2018-05-18T01:09:57.394Z,99.90
2018-05-18T01:12:27.794Z,99.90
2018-05-18T01:14:57.457Z,99.90
2018-05-18T01:17:28.827Z,99.90
2018-05-18T01:19:59.901Z,99.90
2018-05-18T01:22:31.339Z,99.90
2018-05-18T01:25:04.317Z,99.90
2018-05-18T01:27:35.009Z,99.90
2018-05-18T01:30:05.782Z,99.90
2018-05-18T01:32:36.850Z,99.90
2018-05-18T01:35:09.366Z,99.90
2018-05-18T01:37:39.695Z,99.90
2018-05-18T01:40:09.331Z,99.90
2018-05-18T01:42:38.977Z,99.90
2018-05-18T01:45:09.027Z,99.90
2018-05-18T01:47:39.088Z,99.90
2018-05-18T01:50:09.464Z,99.90
2018-05-18T01:52:40.731Z,99.90
2018-05-18T01:55:11.085Z,99.90
2018-05-18T01:57:40.505Z,99.90
2018-05-18T02:00:09.816Z,99.90
2018-05-18T02:02:39.223Z,99.90
2018-05-18T02:05:09.476Z,99.90
2018-05-18T02:07:38.825Z,99.90
2018-05-18T02:10:08.705Z,99.90
2018-05-18T02:12:38.372Z,99.90
2018-05-18T02:15:07.759Z,99.90
2018-05-18T02:17:37.145Z,99.90
2018-05-18T02:20:06.443Z,99.90
2018-05-18T02:22:36.611Z,99.90
2018-05-18T02:25:06.680Z,99.90
2018-05-18T02:27:35.990Z,99.90
2018-05-18T02:30:05.295Z,99.90
2018-05-18T02:32:34.659Z,99.90
2018-05-18T02:35:04.049Z,99.90
2018-05-18T02:37:33.589Z,99.90
2018-05-18T02:40:03.229Z,99.90
2018-05-18T02:42:32.796Z,99.90
2018-05-18T02:45:02.188Z,99.90
2018-05-18T02:47:31.598Z,99.90
2018-05-18T02:50:00.968Z,99.90
2018-05-18T02:52:32.287Z,99.90
2018-05-18T02:55:01.746Z,99.90
2018-05-18T02:57:34.204Z,99.90
2018-05-18T03:00:06.576Z,99.90
2018-05-18T03:02:41.657Z,99.90
2018-05-18T03:05:18.320Z,99.90
2018-05-18T03:07:54.380Z,99.90
2018-05-18T03:10:30.724Z,99.90
2018-05-18T03:13:08.597Z,99.90
2018-05-18T03:15:47.536Z,99.90
2018-05-18T03:18:18.020Z,99.90
2018-05-18T03:20:52.550Z,99.90
2018-05-18T03:23:27.010Z,99.90
2018-05-18T03:25:57.107Z,99.90
2018-05-18T03:28:30.730Z,99.90
2018-05-18T03:31:07.662Z,99.90
2018-05-18T03:33:37.202Z,99.90
2018-05-18T03:36:13.756Z,99.90
2018-05-18T03:38:50.766Z,99.90
2018-05-18T03:41:32.575Z,99.90
2018-05-18T03:44:17.391Z,99.90
2018-05-18T03:46:56.682Z,99.90
2018-05-18T03:49:31.980Z,99.90
2018-05-18T03:52:12.739Z,99.90
2018-05-18T03:54:55.595Z,99.90
2018-05-18T03:57:35.026Z,99.90
2018-05-18T04:03:08.974Z,99.90
2018-05-18T04:06:00.396Z,99.90
2018-05-18T04:08:54.310Z,99.90
2018-05-18T04:11:25.692Z,99.90
2018-05-18T04:13:59.433Z,99.90
2018-05-18T04:16:36.127Z,99.90
2018-05-18T04:19:11.932Z,99.90
2018-05-18T04:21:49.420Z,99.90
2018-05-18T04:24:21.741Z,99.90
2018-05-18T04:26:52.064Z,99.90
2018-05-18T04:29:25.922Z,99.90
2018-05-18T04:31:58.067Z,99.90
2018-05-18T04:34:36.650Z,99.90
2018-05-18T04:37:15.902Z,99.90
2018-05-18T04:39:48.916Z,99.90
2018-05-18T04:42:30.203Z,99.90
2018-05-18T04:50:51.145Z,99.90
2018-05-18T04:53:20.692Z,99.90
2018-05-18T04:55:50.264Z,99.90
2018-05-18T04:58:20.543Z,99.90
2018-05-18T05:00:50.089Z,99.90
2018-05-18T05:03:23.605Z,99.90
2018-05-18T05:06:00.474Z,99.90
2018-05-18T05:16:55.139Z,98.40
2018-05-18T05:19:32.557Z,97.50
2018-05-18T05:27:31.608Z,95.90
2018-05-18T05:30:10.556Z,95.50
2018-05-18T05:32:50.288Z,94.80
2018-05-18T05:35:21.575Z,94.20
2018-05-18T05:37:56.900Z,92.30
2018-05-18T05:40:28.674Z,92.20
2018-05-18T05:46:14.131Z,91.70
2018-05-18T05:49:01.024Z,91.80
2018-05-18T05:51:52.689Z,91.00
2018-05-18T05:54:45.911Z,90.90
2018-05-18T06:00:30.888Z,91.10
2018-05-18T06:03:25.001Z,91.10
2018-05-18T06:18:24.728Z,89.10
2018-05-18T06:21:23.508Z,89.30
2018-05-18T06:30:22.940Z,88.40
2018-05-18T06:47:03.299Z,90.30
2018-05-18T06:49:54.237Z,90.70
2018-05-18T06:55:33.334Z,90.00
2018-05-18T06:58:45.947Z,90.40
2018-05-18T07:32:16.548Z,89.10
2018-05-18T07:38:16.673Z,89.40
2018-05-18T07:55:25.782Z,91.50
2018-05-18T07:58:26.727Z,91.00
2018-05-18T08:01:25.423Z,90.80
2018-05-18T08:10:21.769Z,90.20
2018-05-18T08:15:54.209Z,90.90
2018-05-18T08:24:20.999Z,91.00
2018-05-18T08:27:17.171Z,91.40
2018-05-18T08:29:59.398Z,90.70
2018-05-18T08:32:48.370Z,90.30
2018-05-18T08:35:42.989Z,90.60
2018-05-18T08:41:38.235Z,91.20
2018-05-18T08:47:15.048Z,91.70
2018-05-18T08:50:02.993Z,91.50
2018-05-18T08:52:52.802Z,91.70
2018-05-18T08:55:39.810Z,91.80
2018-05-18T08:58:25.696Z,91.10
2018-05-18T09:01:11.809Z,91.20
2018-05-18T09:06:55.447Z,91.40
2018-05-18T09:09:36.993Z,91.40
2018-05-18T09:12:28.305Z,91.60
2018-05-18T09:15:18.334Z,90.80
2018-05-18T09:18:00.548Z,91.60
2018-05-18T09:20:43.670Z,91.40
2018-05-18T09:26:18.531Z,91.20
2018-05-18T09:29:17.486Z,91.20
2018-05-18T09:54:57.184Z,90.40
2018-05-18T11:01:06.730Z,82.70
2018-05-18T11:03:36.048Z,84.00
2018-05-18T11:06:06.035Z,85.10
2018-05-18T11:08:35.899Z,85.10
2018-05-18T11:11:24.758Z,84.10
2018-05-18T11:14:00.799Z,84.30
2018-05-18T11:16:33.062Z,83.40
2018-05-18T11:19:03.401Z,84.20
2018-05-18T11:21:42.836Z,83.40
2018-05-18T11:24:17.937Z,85.10
2018-05-18T11:26:52.422Z,83.10
2018-05-18T11:29:21.775Z,82.90
2018-05-18T11:31:51.123Z,81.70
2018-05-18T11:34:20.517Z,84.10
2018-05-18T11:36:51.387Z,83.50
2018-05-18T11:39:28.331Z,81.90
2018-05-18T11:42:01.168Z,81.10
2018-05-18T11:52:48.652Z,77.30
2018-05-18T11:55:25.746Z,77.10
2018-05-18T11:57:57.197Z,77.70
2018-05-18T12:00:30.131Z,79.60
2018-05-18T12:17:16.890Z,75.00
2018-05-18T12:23:09.421Z,74.90
2018-05-18T12:25:43.696Z,76.40
2018-05-18T12:31:38.394Z,77.80
2018-05-18T12:34:29.771Z,79.80
2018-05-18T12:37:37.632Z,77.10
2018-05-18T12:46:17.480Z,77.20
2018-05-18T12:49:16.957Z,77.50
2018-05-18T12:55:19.900Z,78.40
2018-05-18T13:46:52.541Z,78.80
2018-05-18T13:49:52.743Z,77.10
2018-05-18T13:58:51.425Z,79.30
2018-05-18T14:04:34.909Z,76.80
2018-05-18T14:27:16.317Z,74.60
2018-05-18T14:33:12.275Z,76.00
2018-05-18T14:35:49.110Z,76.20
2018-05-18T14:41:44.599Z,72.50
2018-05-18T14:47:50.387Z,74.90
2018-05-18T14:53:51.792Z,74.70
2018-05-18T14:56:35.139Z,75.90
2018-05-18T15:15:43.336Z,75.60
2018-05-18T15:18:15.363Z,74.50
2018-05-18T15:20:47.812Z,74.50
2018-05-18T15:23:21.645Z,76.40
2018-05-18T15:26:03.801Z,76.40
2018-05-18T15:28:35.841Z,76.70
2018-05-18T15:31:13.073Z,77.00
2018-05-18T15:33:46.232Z,77.00
2018-05-18T15:36:16.615Z,75.20
2018-05-18T15:38:46.061Z,75.20
2018-05-18T15:41:16.307Z,75.60
2018-05-18T15:43:47.280Z,75.70
2018-05-18T15:46:16.655Z,75.70
2018-05-18T15:48:46.027Z,76.90
2018-05-18T15:51:15.481Z,75.80
2018-05-18T15:53:44.946Z,74.50
2018-05-18T15:56:15.159Z,74.40
2018-05-18T15:58:44.468Z,74.10
2018-05-18T16:01:16.810Z,72.40
2018-05-18T16:03:46.213Z,72.90
2018-05-18T16:06:16.976Z,72.00
2018-05-18T16:08:46.441Z,71.00
2018-05-18T16:11:17.199Z,71.00
2018-05-18T16:13:47.778Z,70.90
2018-05-18T16:16:17.490Z,69.90
2018-05-18T16:18:48.025Z,71.70
2018-05-18T16:21:18.096Z,71.80
2018-05-18T16:23:47.435Z,71.40
2018-05-18T16:26:16.730Z,72.60
2018-05-18T16:28:46.031Z,73.80
2018-05-18T16:31:15.351Z,73.70
2018-05-18T16:33:45.420Z,74.40
2018-05-18T16:36:16.363Z,74.40
2018-05-18T16:38:46.348Z,74.00
2018-05-18T16:41:16.858Z,74.10
2018-05-18T16:43:47.979Z,72.00
2018-05-18T16:46:18.965Z,72.50
2018-05-18T16:48:49.983Z,72.70
2018-05-18T16:58:29.341Z,71.90
2018-05-18T17:01:01.250Z,72.50
2018-05-18T17:03:31.437Z,72.40
2018-05-18T17:06:02.001Z,72.80
2018-05-18T17:08:31.449Z,71.40
2018-05-18T17:11:00.752Z,70.40
2018-05-18T17:13:30.198Z,70.90
2018-05-18T17:15:59.567Z,70.10
2018-05-18T17:18:28.871Z,69.10
2018-05-18T17:20:58.261Z,69.80
2018-05-18T17:23:27.983Z,70.20
2018-05-18T17:25:58.091Z,69.80
2018-05-18T17:28:27.366Z,69.70
2018-05-18T17:30:56.739Z,69.70
2018-05-18T17:33:27.030Z,68.90
2018-05-18T17:35:57.762Z,68.90
2018-05-18T17:38:27.230Z,68.80
2018-05-18T17:40:57.236Z,68.10
2018-05-18T17:43:26.795Z,67.40
2018-05-18T17:45:56.457Z,66.70
2018-05-18T17:48:28.616Z,68.20
2018-05-18T17:50:59.068Z,69.10
2018-05-18T17:53:28.550Z,69.10
2018-05-18T17:55:57.932Z,69.80
2018-05-18T17:58:27.184Z,70.70
2018-05-18T18:00:56.710Z,71.10
2018-05-18T18:03:26.312Z,72.10
2018-05-18T18:05:55.813Z,72.40
2018-05-18T18:08:25.977Z,73.00
2018-05-18T18:10:55.840Z,73.40
2018-05-18T18:13:27.248Z,73.70
2018-05-18T18:15:57.429Z,75.10
2018-05-18T18:18:26.896Z,75.00
2018-05-18T18:20:56.251Z,75.60
2018-05-18T18:23:27.613Z,75.60
2018-05-18T18:25:58.993Z,76.80
2018-05-18T18:28:29.468Z,77.70
2018-05-18T18:30:59.637Z,78.90
2018-05-18T18:33:30.841Z,80.00
2018-05-18T18:36:02.222Z,80.80
2018-05-18T18:38:33.287Z,81.90
2018-05-18T18:41:03.773Z,82.70
2018-05-18T18:46:52.486Z,83.80
2018-05-18T18:49:28.802Z,84.90
2018-05-18T18:52:01.394Z,85.50
2018-05-18T18:54:36.597Z,86.10
2018-05-18T18:57:10.105Z,86.70
2018-05-18T19:02:22.798Z,88.50
2018-05-18T19:10:41.718Z,90.20
2018-05-18T19:13:11.128Z,90.30
2018-05-18T19:15:41.483Z,90.70
2018-05-18T19:18:10.998Z,91.00
2018-05-18T19:20:49.907Z,91.40
2018-05-18T19:23:25.211Z,91.60
2018-05-18T19:25:59.048Z,91.60
2018-05-18T19:28:32.087Z,91.80
2018-05-18T19:31:05.511Z,91.60
2018-05-18T19:33:42.124Z,91.60
2018-05-18T19:36:11.609Z,91.40
2018-05-18T19:38:42.623Z,91.50
2018-05-18T19:41:14.574Z,91.30
2018-05-18T19:43:44.723Z,91.40
2018-05-18T19:46:15.152Z,91.50
2018-05-18T19:48:50.182Z,91.90
2018-05-18T19:51:20.354Z,92.10
2018-05-18T19:53:53.640Z,92.10
2018-05-18T19:56:24.055Z,92.30
2018-05-18T19:58:53.533Z,92.30
2018-05-18T20:01:22.932Z,92.30
2018-05-18T20:03:54.305Z,92.50
2018-05-18T20:06:24.495Z,92.30
2018-05-18T20:08:54.814Z,92.60
2018-05-18T20:11:27.258Z,93.00
2018-05-18T20:13:57.525Z,92.90
2018-05-18T20:16:28.660Z,93.40
2018-05-18T20:18:59.058Z,93.40
2018-05-18T20:21:28.547Z,93.30
2018-05-18T20:23:57.970Z,93.60
2018-05-18T20:26:27.841Z,93.80
2018-05-18T20:28:57.276Z,93.90
2018-05-18T20:31:28.532Z,94.10
2018-05-18T20:33:58.063Z,94.20
2018-05-18T20:36:27.629Z,94.50
2018-05-18T20:38:58.351Z,94.50
2018-05-18T20:41:30.134Z,95.00
2018-05-18T20:44:00.274Z,95.00
2018-05-18T20:46:30.956Z,95.30
2018-05-18T20:49:01.272Z,95.40
2018-05-18T20:51:34.912Z,95.90
2018-05-18T20:54:04.411Z,95.80
2018-05-18T20:56:33.848Z,96.00
2018-05-18T20:59:03.277Z,96.20
2018-05-18T21:01:33.216Z,96.30
2018-05-18T21:04:03.023Z,96.40
2018-05-18T21:06:32.966Z,96.70
2018-05-18T21:09:03.208Z,96.80
2018-05-18T21:11:33.360Z,96.80
2018-05-18T21:14:03.203Z,97.00
2018-05-18T21:16:32.606Z,97.10
2018-05-18T21:19:02.411Z,97.20
2018-05-18T21:21:31.836Z,97.50
2018-05-18T21:24:01.153Z,97.60
2018-05-18T21:26:30.584Z,97.80
2018-05-18T21:29:00.088Z,98.00
2018-05-18T21:31:29.943Z,98.40
2018-05-18T21:33:59.465Z,98.40
2018-05-18T21:36:29.637Z,98.50
2018-05-18T21:38:59.513Z,98.50
2018-05-18T21:41:30.044Z,98.60
2018-05-18T21:44:00.347Z,98.90
2018-05-18T21:46:29.769Z,98.90
2018-05-18T21:48:59.516Z,99.10
2018-05-18T21:51:29.022Z,99.20
2018-05-18T21:53:58.426Z,99.30
2018-05-18T21:56:27.810Z,99.20
2018-05-18T21:58:57.354Z,99.40
2018-05-18T22:01:26.758Z,99.50
2018-05-18T22:03:56.207Z,99.60
2018-05-18T22:06:25.650Z,99.80
2018-05-18T22:08:55.069Z,99.90
2018-05-18T22:11:24.977Z,99.90
2018-05-18T22:13:54.335Z,99.90
2018-05-18T22:16:23.794Z,99.90
2018-05-18T22:18:53.984Z,99.90
2018-05-18T22:21:23.499Z,99.90
2018-05-18T22:23:52.943Z,99.90
2018-05-18T22:26:23.225Z,99.90
2018-05-18T22:28:52.580Z,99.90
2018-05-18T22:31:21.931Z,99.90
2018-05-18T22:33:53.834Z,99.90
2018-05-18T22:36:23.185Z,99.90
2018-05-18T22:38:53.193Z,99.90
2018-05-18T22:41:23.464Z,99.90
2018-05-18T22:43:53.373Z,99.90
2018-05-18T22:46:23.434Z,99.90
2018-05-18T22:48:52.791Z,99.90
2018-05-18T22:51:22.215Z,99.90
2018-05-18T22:53:51.686Z,99.90
2018-05-18T22:56:21.065Z,99.90
2018-05-18T22:58:50.524Z,99.90
2018-05-18T23:01:19.909Z,99.90
2018-05-18T23:03:49.381Z,99.90
2018-05-18T23:06:18.823Z,99.90
2018-05-18T23:08:48.516Z,99.90
2018-05-18T23:11:17.897Z,99.90
2018-05-18T23:13:47.878Z,99.90
2018-05-18T23:16:17.328Z,99.90
2018-05-18T23:18:46.708Z,99.90
2018-05-18T23:21:16.886Z,99.90
2018-05-18T23:23:47.122Z,99.90
2018-05-18T23:26:18.565Z,99.90
2018-05-18T23:28:48.385Z,99.90
2018-05-18T23:31:20.334Z,99.90
2018-05-18T23:33:50.630Z,99.90
2018-05-18T23:36:21.255Z,99.90
2018-05-18T23:38:51.371Z,99.90
2018-05-18T23:41:22.413Z,99.90
2018-05-18T23:43:53.431Z,99.90
2018-05-18T23:46:22.917Z,99.90
2018-05-18T23:48:53.973Z,99.90
2018-05-18T23:51:23.354Z,99.90
2018-05-18T23:53:53.628Z,99.90
2018-05-18T23:56:26.012Z,99.90
2018-05-18T23:58:56.107Z,99.90
